Broadalbin, NY

23:02 EDT le 28 août 2015 (GMT -0400)
Sacandaga Lake | | Change Station
CLOSE
Current Station
Stations météorologiques personnelles
Location: Broadalbin, NY
Altitude: 770 ft
Stations météo à proximité

Alt. 770 ft 43.12 °N, 74.15 °W | Updated 0 second ago

Ciel dégagé
Ciel dégagé
58.3 ° F
Paraît 58.3 ° F
N
5.0
Vent Variable Vent de Ouest
Gusts 6.0 mph

Aujourd'hui
Haut(e) -- | Bas -- ° F
--% Risque de précip.
Hier
Haut(e) -- | Bas -- ° F
Precip. -- pouce
6:16 AM 7:38 PM
Lune gibbeuse croissante, 99% visible
Pression 30.20 pouce
Visibilité 10.0 Miles terrestres
Nuages Ciel dégagé
Point de rosée 56 ° F
Humidité 93%
Précipitations 0.00 pouce
Profondeur de la couche neigeuse Non disponible.
UV 0 sur 12
Pollen 9.10 sur 12
Qualité de l'air Non disponible.
Flu Activity Non disponible.
METAR KSCH 290155Z 00000KT 10SM CLR 17/12 A3020 RMK LAST
Pression 30.20 pouce
Visibilité 10.0 Miles terrestres
Nuages Ciel dégagé
Point de rosée 56 ° F
Humidité 93%
Précipitations 0.00 pouce
Profondeur de la couche neigeuse Non disponible.
UV 0 sur 12
Pollen 9.10 sur 12
Qualité de l'air Non disponible.
Flu Activity Non disponible.
METAR KSCH 290155Z 00000KT 10SM CLR 17/12 A3020 RMK LAST

10-Day Weather Forecast

×

Almanac

Astronomie

Aug. 28, 2015 Lever Coucher
Temps réel
Crépuscule civil
Crépuscule nautique
Crépuscule astronomique
Lune
Durée de lumière visible
Longueur du jour
Tomorrow will be .
, % of the Moon is Illuminated

Extrêmes aujourd'hui

State Highs State Lows

Community

WunderPhotos

Upload Photos

1,850,593 Photos téléchargées !

WunderBlogs® & News

Nearby

Qualité de l'air

  Qualité de l'air Indice de la qualité de l'air Polluant
Not available.

Épaisseur de neige

Station Depth Altitude

Activité sismique

Ville Distance Mag. Time & Date
Minimum magnitude displayed is 2.5.

Températures des eaux côtières

Lieu Température

Stations

Stations météo à proximité

Emplacement de la station Température Refroidissement éolien Point de rosée Humidité Vent Precip. Alt. Mise à jour Type